sensor_id;sensor_type;location;lat;lon;timestamp;pressure;altitude;pressure_sealevel;temperature;humidity
40994;BME280;26722;43.212;27.932;2022-12-29T00:02:09;55259.66;;;-146.72;63.28
40994;BME280;26722;43.212;27.932;2022-12-29T00:04:35;55259.66;;;-146.72;63.02
40994;BME280;26722;43.212;27.932;2022-12-29T00:07:01;55268.09;;;-146.72;62.98
40994;BME280;26722;43.212;27.932;2022-12-29T00:09:29;55263.88;;;-146.72;62.63
40994;BME280;26722;43.212;27.932;2022-12-29T00:11:55;55259.66;;;-146.72;62.54
40994;BME280;26722;43.212;27.932;2022-12-29T00:14:20;55280.78;;;-146.72;62.78
40994;BME280;26722;43.212;27.932;2022-12-29T00:17:04;55272.31;;;-146.72;63.34
40994;BME280;26722;43.212;27.932;2022-12-29T00:19:30;55280.78;;;-146.72;63.33
40994;BME280;26722;43.212;27.932;2022-12-29T00:22:34;55270.22;;;-146.72;63.55
40994;BME280;26722;43.212;27.932;2022-12-29T00:25:18;55251.22;;;-146.72;63.74
40994;BME280;26722;43.212;27.932;2022-12-29T00:28:02;55266.00;;;-146.72;63.54
40994;BME280;26722;43.212;27.932;2022-12-29T00:30:46;55289.22;;;-146.72;63.75
40994;BME280;26722;43.212;27.932;2022-12-29T00:33:32;55259.66;;;-146.72;64.28
40994;BME280;26722;43.212;27.932;2022-12-29T00:36:21;55287.09;;;-146.72;64.68
40994;BME280;26722;43.212;27.932;2022-12-29T00:38:52;55280.78;;;-146.72;64.73
40994;BME280;26722;43.212;27.932;2022-12-29T00:41:36;55287.09;;;-146.72;64.71
40994;BME280;26722;43.212;27.932;2022-12-29T00:44:20;55263.88;;;-146.72;64.73
40994;BME280;26722;43.212;27.932;2022-12-29T00:46:46;55251.22;;;-146.72;64.79
40994;BME280;26722;43.212;27.932;2022-12-29T00:49:13;55268.09;;;-146.72;64.65
40994;BME280;26722;43.212;27.932;2022-12-29T00:52:03;55289.22;;;-146.72;64.52
40994;BME280;26722;43.212;27.932;2022-12-29T00:54:33;55263.88;;;-146.72;64.90
40994;BME280;26722;43.212;27.932;2022-12-29T00:56:59;55291.34;;;-146.72;64.81
40994;BME280;26722;43.212;27.932;2022-12-29T00:59:25;55270.22;;;-146.72;64.81
40994;BME280;26722;43.212;27.932;2022-12-29T01:01:52;55285.00;;;-146.72;65.17
40994;BME280;26722;43.212;27.932;2022-12-29T01:04:19;55261.78;;;-146.72;65.24
40994;BME280;26722;43.212;27.932;2022-12-29T01:06:45;55293.44;;;-146.72;65.67
40994;BME280;26722;43.212;27.932;2022-12-29T01:09:11;55276.56;;;-146.72;65.29
40994;BME280;26722;43.212;27.932;2022-12-29T01:11:55;55280.78;;;-146.72;65.54
40994;BME280;26722;43.212;27.932;2022-12-29T01:14:21;55276.56;;;-146.72;65.68
40994;BME280;26722;43.212;27.932;2022-12-29T01:16:47;55297.66;;;-146.72;65.18
40994;BME280;26722;43.212;27.932;2022-12-29T01:19:14;55240.66;;;-146.72;65.18
40994;BME280;26722;43.212;27.932;2022-12-29T01:21:40;55272.31;;;-146.72;65.25
40994;BME280;26722;43.212;27.932;2022-12-29T01:24:05;55263.88;;;-146.72;65.59
40994;BME280;26722;43.212;27.932;2022-12-29T01:26:31;55274.44;;;-146.72;65.61
40994;BME280;26722;43.212;27.932;2022-12-29T01:28:56;55259.66;;;-146.72;65.33
40994;BME280;26722;43.212;27.932;2022-12-29T01:31:22;55259.66;;;-146.72;64.94
40994;BME280;26722;43.212;27.932;2022-12-29T01:33:47;55268.09;;;-146.72;65.19
40994;BME280;26722;43.212;27.932;2022-12-29T01:36:15;55251.22;;;-146.72;65.34
40994;BME280;26722;43.212;27.932;2022-12-29T01:38:41;55266.00;;;-146.72;65.42
40994;BME280;26722;43.212;27.932;2022-12-29T01:41:08;55263.88;;;-146.72;65.79
40994;BME280;26722;43.212;27.932;2022-12-29T01:43:57;55272.31;;;-146.72;65.78
40994;BME280;26722;43.212;27.932;2022-12-29T01:51:57;55285.00;;;-146.72;65.43
40994;BME280;26722;43.212;27.932;2022-12-29T01:54:25;55244.88;;;-146.72;65.28
40994;BME280;26722;43.212;27.932;2022-12-29T01:56:52;55242.78;;;-146.72;65.37
40994;BME280;26722;43.212;27.932;2022-12-29T01:59:22;55259.66;;;-146.72;65.48
40994;BME280;26722;43.212;27.932;2022-12-29T02:01:50;55261.78;;;-146.72;65.44
40994;BME280;26722;43.212;27.932;2022-12-29T02:04:16;55261.78;;;-146.72;65.59
40994;BME280;26722;43.212;27.932;2022-12-29T02:06:46;55234.31;;;-146.72;65.51
40994;BME280;26722;43.212;27.932;2022-12-29T02:09:13;55255.44;;;-146.72;65.37
40994;BME280;26722;43.212;27.932;2022-12-29T02:11:39;55263.88;;;-146.72;65.78
40994;BME280;26722;43.212;27.932;2022-12-29T02:14:11;55251.22;;;-146.72;65.85
40994;BME280;26722;43.212;27.932;2022-12-29T02:16:51;55263.88;;;-146.72;65.46
40994;BME280;26722;43.212;27.932;2022-12-29T02:19:54;55274.44;;;-146.72;65.57
40994;BME280;26722;43.212;27.932;2022-12-29T02:28:22;55242.78;;;-146.72;65.79
40994;BME280;26722;43.212;27.932;2022-12-29T02:39:40;55238.53;;;-146.72;66.34
40994;BME280;26722;43.212;27.932;2022-12-29T02:42:12;55247.00;;;-146.72;66.51
40994;BME280;26722;43.212;27.932;2022-12-29T02:47:36;55255.44;;;-146.72;66.33
40994;BME280;26722;43.212;27.932;2022-12-29T02:50:23;55255.44;;;-146.72;66.24
40994;BME280;26722;43.212;27.932;2022-12-29T02:52:57;55263.88;;;-146.72;66.18
40994;BME280;26722;43.212;27.932;2022-12-29T02:55:23;55244.88;;;-146.72;66.36
40994;BME280;26722;43.212;27.932;2022-12-29T02:58:25;55266.00;;;-146.72;66.08
40994;BME280;26722;43.212;27.932;2022-12-29T03:04:29;55255.44;;;-146.72;66.23
40994;BME280;26722;43.212;27.932;2022-12-29T03:15:02;55259.66;;;-146.72;66.75
40994;BME280;26722;43.212;27.932;2022-12-29T03:18:06;55249.09;;;-146.72;66.85
40994;BME280;26722;43.212;27.932;2022-12-29T03:20:42;55234.31;;;-146.72;66.79
40994;BME280;26722;43.212;27.932;2022-12-29T03:23:11;55255.44;;;-146.72;66.31
40994;BME280;26722;43.212;27.932;2022-12-29T03:25:41;55259.66;;;-146.72;66.53
40994;BME280;26722;43.212;27.932;2022-12-29T03:28:12;55257.56;;;-146.72;66.62
40994;BME280;26722;43.212;27.932;2022-12-29T03:30:39;55259.66;;;-146.72;66.79
40994;BME280;26722;43.212;27.932;2022-12-29T03:33:09;55285.00;;;-146.72;66.45
40994;BME280;26722;43.212;27.932;2022-12-29T03:35:39;55242.78;;;-146.72;66.75
40994;BME280;26722;43.212;27.932;2022-12-29T03:40:46;55251.22;;;-146.72;66.54
40994;BME280;26722;43.212;27.932;2022-12-29T03:43:14;55263.88;;;-146.72;66.73
40994;BME280;26722;43.212;27.932;2022-12-29T03:45:40;55270.22;;;-146.72;66.96
40994;BME280;26722;43.212;27.932;2022-12-29T03:48:05;55251.22;;;-146.72;67.15
40994;BME280;26722;43.212;27.932;2022-12-29T03:50:30;55272.31;;;-146.72;67.45
40994;BME280;26722;43.212;27.932;2022-12-29T03:52:56;55255.44;;;-146.72;67.27
40994;BME280;26722;43.212;27.932;2022-12-29T03:55:22;55255.44;;;-146.72;67.34
40994;BME280;26722;43.212;27.932;2022-12-29T03:57:47;55236.44;;;-146.72;67.36
40994;BME280;26722;43.212;27.932;2022-12-29T04:00:13;55272.31;;;-146.72;67.69
40994;BME280;26722;43.212;27.932;2022-12-29T04:02:38;55238.53;;;-146.72;67.59
40994;BME280;26722;43.212;27.932;2022-12-29T04:05:04;55255.44;;;-146.72;67.90
40994;BME280;26722;43.212;27.932;2022-12-29T04:07:30;55276.56;;;-146.72;68.10
40994;BME280;26722;43.212;27.932;2022-12-29T04:09:55;55247.00;;;-146.72;67.96
40994;BME280;26722;43.212;27.932;2022-12-29T04:12:21;55263.88;;;-146.72;67.89
40994;BME280;26722;43.212;27.932;2022-12-29T04:14:46;55249.09;;;-146.72;68.26
40994;BME280;26722;43.212;27.932;2022-12-29T04:17:12;55251.22;;;-146.72;68.27
40994;BME280;26722;43.212;27.932;2022-12-29T04:19:38;55270.22;;;-146.72;68.03
40994;BME280;26722;43.212;27.932;2022-12-29T04:22:03;55268.09;;;-146.72;68.15
40994;BME280;26722;43.212;27.932;2022-12-29T04:24:29;55268.09;;;-146.72;68.11
40994;BME280;26722;43.212;27.932;2022-12-29T04:26:54;55263.88;;;-146.72;68.14
40994;BME280;26722;43.212;27.932;2022-12-29T04:29:20;55255.44;;;-146.72;68.73
40994;BME280;26722;43.212;27.932;2022-12-29T04:31:45;55259.66;;;-146.72;68.84
40994;BME280;26722;43.212;27.932;2022-12-29T04:34:11;55255.44;;;-146.72;69.13
40994;BME280;26722;43.212;27.932;2022-12-29T04:36:37;55268.09;;;-146.72;69.06
40994;BME280;26722;43.212;27.932;2022-12-29T04:39:05;55251.22;;;-146.72;69.20
40994;BME280;26722;43.212;27.932;2022-12-29T04:41:30;55238.53;;;-146.72;69.38
40994;BME280;26722;43.212;27.932;2022-12-29T04:43:56;55255.44;;;-146.72;69.28
40994;BME280;26722;43.212;27.932;2022-12-29T04:46:21;55255.44;;;-146.72;69.24
40994;BME280;26722;43.212;27.932;2022-12-29T04:48:47;55274.44;;;-146.72;68.70
40994;BME280;26722;43.212;27.932;2022-12-29T04:51:12;55272.31;;;-146.72;68.49
40994;BME280;26722;43.212;27.932;2022-12-29T04:53:38;55257.56;;;-146.72;68.56
40994;BME280;26722;43.212;27.932;2022-12-29T04:56:04;55259.66;;;-146.72;69.08
40994;BME280;26722;43.212;27.932;2022-12-29T04:58:29;55257.56;;;-146.72;68.78
40994;BME280;26722;43.212;27.932;2022-12-29T05:00:55;55247.00;;;-146.72;68.81
40994;BME280;26722;43.212;27.932;2022-12-29T05:03:20;55242.78;;;-146.72;68.98
40994;BME280;26722;43.212;27.932;2022-12-29T05:05:46;55247.00;;;-146.72;68.87
40994;BME280;26722;43.212;27.932;2022-12-29T05:08:11;55268.09;;;-146.72;68.58
40994;BME280;26722;43.212;27.932;2022-12-29T05:10:37;55259.66;;;-146.72;68.54
40994;BME280;26722;43.212;27.932;2022-12-29T05:13:02;55247.00;;;-146.72;68.78
40994;BME280;26722;43.212;27.932;2022-12-29T05:15:27;55263.88;;;-146.72;68.77
40994;BME280;26722;43.212;27.932;2022-12-29T05:17:53;55251.22;;;-146.72;68.95
40994;BME280;26722;43.212;27.932;2022-12-29T05:20:18;55255.44;;;-146.72;69.28
40994;BME280;26722;43.212;27.932;2022-12-29T05:22:44;55251.22;;;-146.72;69.38
40994;BME280;26722;43.212;27.932;2022-12-29T05:25:09;55291.34;;;-146.72;69.42
40994;BME280;26722;43.212;27.932;2022-12-29T05:27:35;55242.78;;;-146.72;69.66
40994;BME280;26722;43.212;27.932;2022-12-29T05:30:01;55261.78;;;-146.72;69.71
40994;BME280;26722;43.212;27.932;2022-12-29T05:32:26;55247.00;;;-146.72;69.73
40994;BME280;26722;43.212;27.932;2022-12-29T05:34:52;55268.09;;;-146.72;69.25
40994;BME280;26722;43.212;27.932;2022-12-29T05:37:17;55263.88;;;-146.72;69.37
40994;BME280;26722;43.212;27.932;2022-12-29T05:39:42;55255.44;;;-146.72;69.11
40994;BME280;26722;43.212;27.932;2022-12-29T05:42:08;55238.53;;;-146.72;68.85
40994;BME280;26722;43.212;27.932;2022-12-29T05:44:34;55247.00;;;-146.72;68.99
40994;BME280;26722;43.212;27.932;2022-12-29T05:46:59;55270.22;;;-146.72;69.35
40994;BME280;26722;43.212;27.932;2022-12-29T05:49:24;55251.22;;;-146.72;69.18
40994;BME280;26722;43.212;27.932;2022-12-29T05:51:50;55242.78;;;-146.72;68.84
40994;BME280;26722;43.212;27.932;2022-12-29T05:54:15;55247.00;;;-146.72;68.81
40994;BME280;26722;43.212;27.932;2022-12-29T05:56:41;55244.88;;;-146.72;68.42
40994;BME280;26722;43.212;27.932;2022-12-29T05:59:06;55240.66;;;-146.72;68.38
40994;BME280;26722;43.212;27.932;2022-12-29T06:01:32;55242.78;;;-146.72;68.21
40994;BME280;26722;43.212;27.932;2022-12-29T06:03:59;55244.88;;;-146.72;67.86
40994;BME280;26722;43.212;27.932;2022-12-29T06:06:24;55215.31;;;-146.72;67.79
40994;BME280;26722;43.212;27.932;2022-12-29T06:08:50;55247.00;;;-146.72;67.26
40994;BME280;26722;43.212;27.932;2022-12-29T06:11:15;55234.31;;;-146.72;67.00
40994;BME280;26722;43.212;27.932;2022-12-29T06:13:41;55225.88;;;-146.72;66.93
40994;BME280;26722;43.212;27.932;2022-12-29T06:16:07;55219.53;;;-146.72;67.12
40994;BME280;26722;43.212;27.932;2022-12-29T06:18:33;55247.00;;;-146.72;66.59
40994;BME280;26722;43.212;27.932;2022-12-29T06:21:00;55209.00;;;-146.72;66.00
40994;BME280;26722;43.212;27.932;2022-12-29T06:23:26;55234.31;;;-146.72;66.47
40994;BME280;26722;43.212;27.932;2022-12-29T06:25:51;55202.66;;;-146.72;65.94
40994;BME280;26722;43.212;27.932;2022-12-29T06:28:17;55242.78;;;-146.72;65.56
40994;BME280;26722;43.212;27.932;2022-12-29T06:30:46;55211.09;;;-146.72;65.25
40994;BME280;26722;43.212;27.932;2022-12-29T06:33:12;55202.66;;;-146.72;65.16
40994;BME280;26722;43.212;27.932;2022-12-29T06:35:37;55225.88;;;-146.72;64.98
40994;BME280;26722;43.212;27.932;2022-12-29T06:38:03;55198.44;;;-146.72;64.96
40994;BME280;26722;43.212;27.932;2022-12-29T06:40:29;55213.22;;;-146.72;64.40
40994;BME280;26722;43.212;27.932;2022-12-29T06:42:54;55202.66;;;-146.72;63.99
40994;BME280;26722;43.212;27.932;2022-12-29T06:45:20;55206.88;;;-146.72;64.34
40994;BME280;26722;43.212;27.932;2022-12-29T06:47:45;55177.31;;;-146.72;63.63
40994;BME280;26722;43.212;27.932;2022-12-29T06:50:11;55213.22;;;-146.72;63.63
40994;BME280;26722;43.212;27.932;2022-12-29T06:52:36;55196.31;;;-146.72;63.27
40994;BME280;26722;43.212;27.932;2022-12-29T06:55:02;55187.88;;;-146.72;63.07
40994;BME280;26722;43.212;27.932;2022-12-29T06:57:28;55183.66;;;-146.72;62.83
40994;BME280;26722;43.212;27.932;2022-12-29T06:59:53;55192.09;;;-146.72;62.47
40994;BME280;26722;43.212;27.932;2022-12-29T07:02:21;55183.66;;;-146.72;62.16
40994;BME280;26722;43.212;27.932;2022-12-29T07:04:47;55166.75;;;-146.72;61.74
40994;BME280;26722;43.212;27.932;2022-12-29T07:07:12;55175.22;;;-146.72;61.68
40994;BME280;26722;43.212;27.932;2022-12-29T07:09:38;55179.44;;;-146.72;61.21
40994;BME280;26722;43.212;27.932;2022-12-29T07:12:03;55200.53;;;-146.72;61.27
40994;BME280;26722;43.212;27.932;2022-12-29T07:14:29;55185.75;;;-146.72;61.13
40994;BME280;26722;43.212;27.932;2022-12-29T07:16:54;55168.88;;;-146.72;60.87
40994;BME280;26722;43.212;27.932;2022-12-29T07:19:20;55177.31;;;-146.72;60.76
40994;BME280;26722;43.212;27.932;2022-12-29T07:21:45;55179.44;;;-146.72;60.72
40994;BME280;26722;43.212;27.932;2022-12-29T07:24:11;55175.22;;;-146.72;60.34
40994;BME280;26722;43.212;27.932;2022-12-29T07:26:36;55196.31;;;-146.72;60.29
40994;BME280;26722;43.212;27.932;2022-12-29T07:29:03;55168.88;;;-146.72;59.92
40994;BME280;26722;43.212;27.932;2022-12-29T07:31:28;55141.44;;;-146.72;59.88
40994;BME280;26722;43.212;27.932;2022-12-29T07:33:54;55183.66;;;-146.72;59.90
40994;BME280;26722;43.212;27.932;2022-12-29T07:36:19;55166.75;;;-146.72;59.55
40994;BME280;26722;43.212;27.932;2022-12-29T07:38:45;55145.66;;;-146.72;59.42
40994;BME280;26722;43.212;27.932;2022-12-29T07:41:10;55158.31;;;-146.72;58.96
40994;BME280;26722;43.212;27.932;2022-12-29T07:43:36;55166.75;;;-146.72;58.75
40994;BME280;26722;43.212;27.932;2022-12-29T07:46:01;55149.88;;;-146.72;58.61
40994;BME280;26722;43.212;27.932;2022-12-29T07:48:27;55147.75;;;-146.72;58.29
40994;BME280;26722;43.212;27.932;2022-12-29T07:50:52;55137.22;;;-146.72;58.20
40994;BME280;26722;43.212;27.932;2022-12-29T07:53:18;55149.88;;;-146.72;57.89
40994;BME280;26722;43.212;27.932;2022-12-29T07:55:44;55141.44;;;-146.72;57.80
40994;BME280;26722;43.212;27.932;2022-12-29T07:58:09;55137.22;;;-146.72;57.70
40994;BME280;26722;43.212;27.932;2022-12-29T08:00:35;55141.44;;;-146.72;57.57
40994;BME280;26722;43.212;27.932;2022-12-29T08:03:01;55166.75;;;-146.72;57.00
40994;BME280;26722;43.212;27.932;2022-12-29T08:05:26;55147.75;;;-146.72;56.97
40994;BME280;26722;43.212;27.932;2022-12-29T08:07:52;55154.09;;;-146.72;56.79
40994;BME280;26722;43.212;27.932;2022-12-29T08:10:18;55141.44;;;-146.72;56.90
40994;BME280;26722;43.212;27.932;2022-12-29T08:12:44;55162.53;;;-146.72;56.26
40994;BME280;26722;43.212;27.932;2022-12-29T08:15:11;55156.22;;;-146.72;56.28
40994;BME280;26722;43.212;27.932;2022-12-29T08:17:36;55149.88;;;-146.72;56.18
40994;BME280;26722;43.212;27.932;2022-12-29T08:20:03;55118.19;;;-146.72;56.14
40994;BME280;26722;43.212;27.932;2022-12-29T08:22:29;55145.66;;;-146.72;55.80
40994;BME280;26722;43.212;27.932;2022-12-29T08:24:54;55128.75;;;-146.72;56.05
40994;BME280;26722;43.212;27.932;2022-12-29T08:27:20;55141.44;;;-146.72;56.39
40994;BME280;26722;43.212;27.932;2022-12-29T08:29:45;55147.75;;;-146.72;56.39
40994;BME280;26722;43.212;27.932;2022-12-29T08:32:11;55141.44;;;-146.72;56.10
40994;BME280;26722;43.212;27.932;2022-12-29T08:34:36;55128.75;;;-146.72;56.18
40994;BME280;26722;43.212;27.932;2022-12-29T08:37:02;55137.22;;;-146.72;56.36
40994;BME280;26722;43.212;27.932;2022-12-29T08:39:27;55158.31;;;-146.72;55.96
40994;BME280;26722;43.212;27.932;2022-12-29T08:41:53;55130.88;;;-146.72;55.93
40994;BME280;26722;43.212;27.932;2022-12-29T08:44:19;55128.75;;;-146.72;55.53
40994;BME280;26722;43.212;27.932;2022-12-29T08:46:44;55137.22;;;-146.72;55.10
40994;BME280;26722;43.212;27.932;2022-12-29T08:49:10;55139.31;;;-146.72;54.52
40994;BME280;26722;43.212;27.932;2022-12-29T08:51:35;55137.22;;;-146.72;54.59
40994;BME280;26722;43.212;27.932;2022-12-29T08:54:00;55130.88;;;-146.72;54.96
40994;BME280;26722;43.212;27.932;2022-12-29T08:56:26;55145.66;;;-146.72;54.89
40994;BME280;26722;43.212;27.932;2022-12-29T08:58:53;55141.44;;;-146.72;55.44
40994;BME280;26722;43.212;27.932;2022-12-29T09:01:19;55132.97;;;-146.72;55.36
40994;BME280;26722;43.212;27.932;2022-12-29T09:03:45;55135.09;;;-146.72;55.34
40994;BME280;26722;43.212;27.932;2022-12-29T09:06:11;55124.53;;;-146.72;55.42
40994;BME280;26722;43.212;27.932;2022-12-29T09:08:37;55139.31;;;-146.72;55.24
40994;BME280;26722;43.212;27.932;2022-12-29T09:11:12;55132.97;;;-146.72;54.95
40994;BME280;26722;43.212;27.932;2022-12-29T09:13:38;55120.31;;;-146.72;54.82
40994;BME280;26722;43.212;27.932;2022-12-29T09:16:04;55137.22;;;-146.72;55.06
40994;BME280;26722;43.212;27.932;2022-12-29T09:18:30;55122.44;;;-146.72;54.91
40994;BME280;26722;43.212;27.932;2022-12-29T09:21:02;55120.31;;;-146.72;55.12
40994;BME280;26722;43.212;27.932;2022-12-29T09:23:28;55130.88;;;-146.72;54.32
40994;BME280;26722;43.212;27.932;2022-12-29T09:25:54;55135.09;;;-146.72;54.60
40994;BME280;26722;43.212;27.932;2022-12-29T09:28:20;55113.97;;;-146.72;55.32
40994;BME280;26722;43.212;27.932;2022-12-29T09:30:46;55130.88;;;-146.72;55.84
40994;BME280;26722;43.212;27.932;2022-12-29T09:33:12;55162.53;;;-146.72;55.21
40994;BME280;26722;43.212;27.932;2022-12-29T09:35:41;55124.53;;;-146.72;55.06
40994;BME280;26722;43.212;27.932;2022-12-29T09:38:06;55128.75;;;-146.72;54.32
40994;BME280;26722;43.212;27.932;2022-12-29T09:40:33;55128.75;;;-146.72;53.98
40994;BME280;26722;43.212;27.932;2022-12-29T09:45:42;55120.31;;;-146.72;53.71
40994;BME280;26722;43.212;27.932;2022-12-29T09:48:21;55116.09;;;-146.72;53.33
40994;BME280;26722;43.212;27.932;2022-12-29T09:50:52;55124.53;;;-146.72;53.10
40994;BME280;26722;43.212;27.932;2022-12-29T09:53:21;55132.97;;;-146.72;53.24
40994;BME280;26722;43.212;27.932;2022-12-29T09:55:53;55154.09;;;-146.72;53.26
40994;BME280;26722;43.212;27.932;2022-12-29T09:58:35;55141.44;;;-146.72;53.30
40994;BME280;26722;43.212;27.932;2022-12-29T10:01:09;55124.53;;;-146.72;52.88
40994;BME280;26722;43.212;27.932;2022-12-29T10:03:51;55128.75;;;-146.72;52.96
40994;BME280;26722;43.212;27.932;2022-12-29T10:07:12;55135.09;;;-146.72;52.90
40994;BME280;26722;43.212;27.932;2022-12-29T10:23:29;55137.22;;;-146.72;52.48
40994;BME280;26722;43.212;27.932;2022-12-29T10:25:58;55128.75;;;-146.72;52.52
40994;BME280;26722;43.212;27.932;2022-12-29T10:28:38;55111.88;;;-146.72;52.24
40994;BME280;26722;43.212;27.932;2022-12-29T10:31:21;55128.75;;;-146.72;52.46
40994;BME280;26722;43.212;27.932;2022-12-29T10:33:51;55137.22;;;-146.72;52.84
40994;BME280;26722;43.212;27.932;2022-12-29T10:36:23;55113.97;;;-146.72;52.36
40994;BME280;26722;43.212;27.932;2022-12-29T10:41:45;55126.66;;;-146.72;52.75
40994;BME280;26722;43.212;27.932;2022-12-29T10:44:16;55132.97;;;-146.72;53.06
40994;BME280;26722;43.212;27.932;2022-12-29T10:46:43;55118.19;;;-146.72;53.23
40994;BME280;26722;43.212;27.932;2022-12-29T10:49:16;55120.31;;;-146.72;52.96
40994;BME280;26722;43.212;27.932;2022-12-29T10:51:44;55135.09;;;-146.72;52.77
40994;BME280;26722;43.212;27.932;2022-12-29T10:54:17;55124.53;;;-146.72;52.75
40994;BME280;26722;43.212;27.932;2022-12-29T10:56:47;55124.53;;;-146.72;53.20
40994;BME280;26722;43.212;27.932;2022-12-29T10:59:22;55128.75;;;-146.72;53.29
40994;BME280;26722;43.212;27.932;2022-12-29T11:06:57;55116.09;;;-146.72;54.46
40994;BME280;26722;43.212;27.932;2022-12-29T11:09:34;55126.66;;;-146.72;54.81
40994;BME280;26722;43.212;27.932;2022-12-29T11:12:18;55124.53;;;-146.72;55.39
40994;BME280;26722;43.212;27.932;2022-12-29T11:14:44;55139.31;;;-146.72;55.96
40994;BME280;26722;43.212;27.932;2022-12-29T11:17:15;55107.66;;;-146.72;56.77
40994;BME280;26722;43.212;27.932;2022-12-29T11:19:41;55137.22;;;-146.72;57.16
40994;BME280;26722;43.212;27.932;2022-12-29T11:22:27;55128.75;;;-146.72;57.79
40994;BME280;26722;43.212;27.932;2022-12-29T11:24:54;55132.97;;;-146.72;58.32
40994;BME280;26722;43.212;27.932;2022-12-29T11:27:25;55128.75;;;-146.72;58.64
40994;BME280;26722;43.212;27.932;2022-12-29T11:29:53;55141.44;;;-146.72;58.47
40994;BME280;26722;43.212;27.932;2022-12-29T11:32:27;55124.53;;;-146.72;59.09
40994;BME280;26722;43.212;27.932;2022-12-29T11:34:56;55132.97;;;-146.72;60.08
40994;BME280;26722;43.212;27.932;2022-12-29T11:37:36;55141.44;;;-146.72;59.98
40994;BME280;26722;43.212;27.932;2022-12-29T11:40:15;55111.88;;;-146.72;59.61
40994;BME280;26722;43.212;27.932;2022-12-29T11:45:18;55137.22;;;-146.72;59.65
40994;BME280;26722;43.212;27.932;2022-12-29T11:47:45;55132.97;;;-146.72;59.96
40994;BME280;26722;43.212;27.932;2022-12-29T11:50:18;55118.19;;;-146.72;60.26
40994;BME280;26722;43.212;27.932;2022-12-29T11:52:45;55120.31;;;-146.72;61.20
40994;BME280;26722;43.212;27.932;2022-12-29T11:55:20;55128.75;;;-146.72;61.47
40994;BME280;26722;43.212;27.932;2022-12-29T11:57:47;55137.22;;;-146.72;62.04
40994;BME280;26722;43.212;27.932;2022-12-29T12:00:16;55132.97;;;-146.72;62.26
40994;BME280;26722;43.212;27.932;2022-12-29T12:02:54;55147.75;;;-146.72;62.67
40994;BME280;26722;43.212;27.932;2022-12-29T12:05:24;55128.75;;;-146.72;62.75
40994;BME280;26722;43.212;27.932;2022-12-29T12:10:46;55128.75;;;-146.72;62.90
40994;BME280;26722;43.212;27.932;2022-12-29T12:13:31;55109.75;;;-146.72;63.06
40994;BME280;26722;43.212;27.932;2022-12-29T12:21:36;55118.19;;;-146.72;63.34
40994;BME280;26722;43.212;27.932;2022-12-29T12:38:29;55128.75;;;-146.72;63.75
40994;BME280;26722;43.212;27.932;2022-12-29T12:41:11;55147.75;;;-146.72;64.44
40994;BME280;26722;43.212;27.932;2022-12-29T12:43:41;55128.75;;;-146.72;65.02
40994;BME280;26722;43.212;27.932;2022-12-29T12:57:20;55132.97;;;-146.72;66.17
40994;BME280;26722;43.212;27.932;2022-12-29T13:02:30;55137.22;;;-146.72;66.06
40994;BME280;26722;43.212;27.932;2022-12-29T13:10:58;55128.75;;;-146.72;66.82
40994;BME280;26722;43.212;27.932;2022-12-29T13:30:15;55145.66;;;-146.72;67.99
40994;BME280;26722;43.212;27.932;2022-12-29T13:37:57;55135.09;;;-146.72;68.31
40994;BME280;26722;43.212;27.932;2022-12-29T13:40:28;55139.31;;;-146.72;68.44
40994;BME280;26722;43.212;27.932;2022-12-29T13:42:59;55149.88;;;-146.72;69.02
40994;BME280;26722;43.212;27.932;2022-12-29T13:45:29;55149.88;;;-146.72;69.21
40994;BME280;26722;43.212;27.932;2022-12-29T13:48:09;55141.44;;;-146.72;69.51
40994;BME280;26722;43.212;27.932;2022-12-29T13:50:38;55132.97;;;-146.72;69.85
40994;BME280;26722;43.212;27.932;2022-12-29T13:56:05;55154.09;;;-146.72;70.37
40994;BME280;26722;43.212;27.932;2022-12-29T13:58:41;55162.53;;;-146.72;70.75
40994;BME280;26722;43.212;27.932;2022-12-29T14:03:52;55139.31;;;-146.72;71.40
40994;BME280;26722;43.212;27.932;2022-12-29T14:06:35;55151.97;;;-146.72;71.47
40994;BME280;26722;43.212;27.932;2022-12-29T14:09:26;55141.44;;;-146.72;71.79
40994;BME280;26722;43.212;27.932;2022-12-29T14:11:52;55141.44;;;-146.72;72.13
40994;BME280;26722;43.212;27.932;2022-12-29T14:14:23;55158.31;;;-146.72;72.11
40994;BME280;26722;43.212;27.932;2022-12-29T14:16:50;55154.09;;;-146.72;72.22
40994;BME280;26722;43.212;27.932;2022-12-29T14:19:21;55149.88;;;-146.72;72.25
40994;BME280;26722;43.212;27.932;2022-12-29T14:22:05;55145.66;;;-146.72;72.19
40994;BME280;26722;43.212;27.932;2022-12-29T14:34:47;55162.53;;;-146.72;72.62
40994;BME280;26722;43.212;27.932;2022-12-29T14:40:24;55164.66;;;-146.72;73.22
40994;BME280;26722;43.212;27.932;2022-12-29T14:42:53;55175.22;;;-146.72;73.70
40994;BME280;26722;43.212;27.932;2022-12-29T14:47:49;55170.97;;;-146.72;73.94
40994;BME280;26722;43.212;27.932;2022-12-29T14:50:22;55168.88;;;-146.72;74.10
40994;BME280;26722;43.212;27.932;2022-12-29T14:55:45;55166.75;;;-146.72;74.35
40994;BME280;26722;43.212;27.932;2022-12-29T14:58:48;55177.31;;;-146.72;74.24
40994;BME280;26722;43.212;27.932;2022-12-29T15:03:53;55173.09;;;-146.72;74.49
40994;BME280;26722;43.212;27.932;2022-12-29T15:06:21;55130.88;;;-146.72;74.33
40994;BME280;26722;43.212;27.932;2022-12-29T15:09:10;55170.97;;;-146.72;74.21
40994;BME280;26722;43.212;27.932;2022-12-29T15:16:50;55151.97;;;-146.72;74.70
40994;BME280;26722;43.212;27.932;2022-12-29T15:19:23;55166.75;;;-146.72;74.53
40994;BME280;26722;43.212;27.932;2022-12-29T15:21:49;55173.09;;;-146.72;74.59
40994;BME280;26722;43.212;27.932;2022-12-29T15:24:15;55177.31;;;-146.72;74.64